^^
Datos históricos de la estación: Murcia-Puente Tocinos
Diario Informe para Julio 10, 2019 Unidades:  Ambas    Ingés   Métrico
Diario Semanal Mensual Anual
  Máxima: Mínima: Promedio:
Temperatura: 88.3 °F /  31.3 °C 68 °F /  20 °C 77.5 °F /  25.3 °C
Punto de rocio: 60.6 °F /  15.9 °C 54.7 °F /  12.6 °C 57.2 °F /  14 °C
Humedad: 71% 34.7% 51%
Velocidad viento: 12.5mph /  20.1km/h - 4.6mph /  7.4km/h
Racha viento: 21mph /  33.8km/h - -
Viento- - Sur
Presión: 29.9 in /  1013.4 hPa 29.8 in /  1010.1 hPa -
Precipitación: 0 in /  0.0 mm    
 
 
Tabla de datos para Julio 10, 2019
Hora Temperatura Punto de rocio Presión Viento Velocidad viento Racha viento Humedad Intensidad lluvia(por hora) Nubes
00:04 72.1 °F /  22.3 °C 59.4 °F /  15.2 °C 29.9in /  1011.9hPa ENE 2.4mph /  3.9km/h 5.8mph /  9.3km/h 64% 0in /  0.0mm
00:09 72 °F /  22.2 °C 59.4 °F /  15.2 °C 29.9in /  1011.8hPa NE 2.3mph /  3.7km/h 6mph /  9.7km/h 64.6% 0in /  0.0mm
00:14 71.8 °F /  22.1 °C 59.4 °F /  15.2 °C 29.9in /  1011.8hPa NE 2mph /  3.2km/h 5mph /  8km/h 65% 0in /  0.0mm
00:19 71.8 °F /  22.1 °C 59.7 °F /  15.4 °C 29.9in /  1011.9hPa NE 1.8mph /  2.9km/h 3mph /  4.8km/h 65.9% 0in /  0.0mm
00:24 71.6 °F /  22 °C 59.5 °F /  15.3 °C 29.9in /  1011.9hPa NNE 1.4mph /  2.2km/h 2.3mph /  3.7km/h 66% 0in /  0.0mm
00:29 71.4 °F /  21.9 °C 59.9 °F /  15.5 °C 29.9in /  1011.9hPa NNE 0.9mph /  1.5km/h 2mph /  3.2km/h 66.8% 0in /  0.0mm
00:34 71.4 °F /  21.9 °C 60.3 °F /  15.7 °C 29.9in /  1012.0hPa Calm     67.8% 0in /  0.0mm
00:39 71.2 °F /  21.8 °C 60.1 °F /  15.6 °C 29.9in /  1012.0hPa Calm     68% 0in /  0.0mm
00:44 71.2 °F /  21.8 °C 60.4 °F /  15.8 °C 29.9in /  1012.0hPa Calm     68.8% 0in /  0.0mm
00:49 71.1 °F /  21.7 °C 60.4 °F /  15.8 °C 29.9in /  1012.0hPa Calm     69% 0in /  0.0mm
00:54 71.1 °F /  21.7 °C 60.4 °F /  15.8 °C 29.9in /  1012.0hPa Calm   2.9mph /  4.7km/h 69% 0in /  0.0mm
00:59 71.1 °F /  21.7 °C 60.4 °F /  15.8 °C 29.9in /  1012.0hPa Calm   3.5mph /  5.6km/h 69% 0in /  0.0mm
01:04 71.1 °F /  21.7 °C 60.3 °F /  15.7 °C 29.9in /  1012.0hPa Calm   3mph /  4.8km/h 69% 0in /  0.0mm
01:09 70.9 °F /  21.6 °C 60.3 °F /  15.7 °C 29.9in /  1011.9hPa NNE 0.6mph /  1km/h 5.2mph /  8.4km/h 69% 0in /  0.0mm
01:14 70.7 °F /  21.5 °C 60.4 °F /  15.8 °C 29.9in /  1011.9hPa NNE 1.8mph /  2.9km/h 5mph /  8km/h 69.8% 0in /  0.0mm
01:19 70.5 °F /  21.4 °C 60.3 °F /  15.7 °C 29.9in /  1012.0hPa North 2mph /  3.2km/h 5mph /  8km/h 70% 0in /  0.0mm
01:24 70.5 °F /  21.4 °C 60.3 °F /  15.7 °C 29.9in /  1012.0hPa North 2.4mph /  3.9km/h 4mph /  6.4km/h 70% 0in /  0.0mm
01:29 70.3 °F /  21.3 °C 60.6 °F /  15.9 °C 29.9in /  1012.0hPa North 2.1mph /  3.3km/h 3mph /  4.8km/h 70.9% 0in /  0.0mm
01:34 70.3 °F /  21.3 °C 60.4 °F /  15.8 °C 29.9in /  1012.0hPa North 1.4mph /  2.2km/h 3mph /  4.8km/h 70.7% 0in /  0.0mm
01:39 70.3 °F /  21.3 °C 60.4 °F /  15.8 °C 29.9in /  1012.0hPa North 0.9mph /  1.5km/h   70.8% 0in /  0.0mm
01:44 70.3 °F /  21.3 °C 60.3 °F /  15.7 °C 29.9in /  1012.0hPa Calm     70.5% 0in /  0.0mm
01:49 70.3 °F /  21.3 °C 60.4 °F /  15.8 °C 29.9in /  1012.0hPa Calm   2.4mph /  3.9km/h 71% 0in /  0.0mm
01:54 70.3 °F /  21.3 °C 60.4 °F /  15.8 °C 29.9in /  1012.0hPa Calm   2mph /  3.2km/h 70.8% 0in /  0.0mm
01:59 70.3 °F /  21.3 °C 60.4 °F /  15.8 °C 29.9in /  1012.0hPa Calm   2.3mph /  3.7km/h 70.7% 0in /  0.0mm
02:04 70.3 °F /  21.3 °C 60.4 °F /  15.8 °C 29.9in /  1012.0hPa Calm   2mph /  3.2km/h 71% 0in /  0.0mm
02:09 70.3 °F /  21.3 °C 60.4 °F /  15.8 °C 29.9in /  1011.8hPa Calm   3.5mph /  5.6km/h 71% 0in /  0.0mm
02:14 70.3 °F /  21.3 °C 60.4 °F /  15.8 °C 29.9in /  1011.8hPa Calm   3.6mph /  5.8km/h 71% 0in /  0.0mm
02:19 70.3 °F /  21.3 °C 60.4 °F /  15.8 °C 29.9in /  1011.8hPa Calm   4mph /  6.4km/h 71% 0in /  0.0mm
02:24 70.3 °F /  21.3 °C 60.4 °F /  15.8 °C 29.9in /  1011.8hPa Calm   3.5mph /  5.6km/h 70.8% 0in /  0.0mm
02:29 70.3 °F /  21.3 °C 60.1 °F /  15.6 °C 29.9in /  1011.8hPa Sur 0.6mph /  0.9km/h 3.6mph /  5.8km/h 70% 0in /  0.0mm
02:34 70.3 °F /  21.3 °C 60.1 °F /  15.6 °C 29.9in /  1011.8hPa Sur 1.8mph /  2.9km/h 4mph /  6.4km/h 70.1% 0in /  0.0mm
02:39 70.3 °F /  21.3 °C 60.4 °F /  15.8 °C 29.9in /  1011.7hPa SSO 1.7mph /  2.7km/h 4mph /  6.4km/h 71% 0in /  0.0mm
02:44 70.2 °F /  21.2 °C 60.3 °F /  15.7 °C 29.9in /  1011.7hPa NO 1.4mph /  2.2km/h 3mph /  4.8km/h 71% 0in /  0.0mm
02:49 69.6 °F /  20.9 °C 59.9 °F /  15.5 °C 29.9in /  1011.7hPa OSO 1.4mph /  2.2km/h 5.8mph /  9.3km/h 70.8% 0in /  0.0mm
02:54 69.6 °F /  20.9 °C 59.5 °F /  15.3 °C 29.9in /  1011.6hPa SSE 1.4mph /  2.2km/h 6mph /  9.7km/h 70.2% 0in /  0.0mm
02:59 69.6 °F /  20.9 °C 59 °F /  15 °C 29.9in /  1011.6hPa SSO 2.1mph /  3.4km/h 6mph /  9.7km/h 69.2% 0in /  0.0mm
03:04 69.6 °F /  20.9 °C 58.6 °F /  14.8 °C 29.9in /  1011.6hPa SO 3.1mph /  5km/h 6mph /  9.7km/h 68.1% 0in /  0.0mm
03:09 69.6 °F /  20.9 °C 58.6 °F /  14.8 °C 29.9in /  1011.5hPa SSO 3.1mph /  5km/h 6mph /  9.7km/h 67.8% 0in /  0.0mm
03:14 69.8 °F /  21 °C 58.3 °F /  14.6 °C 29.9in /  1011.5hPa SSE 3.1mph /  5km/h 6mph /  9.7km/h 67% 0in /  0.0mm
03:19 69.8 °F /  21 °C 58.6 °F /  14.8 °C 29.9in /  1011.5hPa SSE 2.9mph /  4.6km/h 6mph /  9.7km/h 67.5% 0in /  0.0mm
03:24 69.8 °F /  21 °C 58.3 °F /  14.6 °C 29.9in /  1011.5hPa SSE 2.4mph /  3.9km/h 3.6mph /  5.8km/h 67% 0in /  0.0mm
03:29 69.8 °F /  21 °C 58.1 °F /  14.5 °C 29.9in /  1011.5hPa SSO 2.1mph /  3.3km/h 4mph /  6.4km/h 66.6% 0in /  0.0mm
03:34 69.8 °F /  21 °C 57.9 °F /  14.4 °C 29.9in /  1011.5hPa SO 1.4mph /  2.2km/h 4mph /  6.4km/h 66% 0in /  0.0mm
03:39 69.8 °F /  21 °C 57.9 °F /  14.4 °C 29.9in /  1011.4hPa SO 0.9mph /  1.5km/h   66.1% 0in /  0.0mm
03:44 69.8 °F /  21 °C 57.9 °F /  14.4 °C 29.9in /  1011.4hPa Calm     66% 0in /  0.0mm
03:49 69.6 °F /  20.9 °C 57.7 °F /  14.3 °C 29.9in /  1011.4hPa Calm   4.7mph /  7.6km/h 66% 0in /  0.0mm
03:54 69.6 °F /  20.9 °C 57.7 °F /  14.3 °C 29.9in /  1011.3hPa Calm   5mph /  8km/h 66% 0in /  0.0mm
03:59 69.8 °F /  21 °C 57.9 °F /  14.4 °C 29.9in /  1011.3hPa OSO 1.1mph /  1.7km/h 5mph /  8km/h 66% 0in /  0.0mm
04:04 69.6 °F /  20.9 °C 58.3 °F /  14.6 °C 29.9in /  1011.6hPa NO 2.4mph /  3.9km/h 4.6mph /  7.4km/h 67.2% 0in /  0.0mm
04:09 69.3 °F /  20.7 °C 58.3 °F /  14.6 °C 29.9in /  1011.6hPa NO 2.2mph /  3.5km/h 5mph /  8km/h 68% 0in /  0.0mm
04:14 68.9 °F /  20.5 °C 57.7 °F /  14.3 °C 29.9in /  1011.6hPa Oeste 1.8mph /  2.9km/h 5.4mph /  8.7km/h 67.8% 0in /  0.0mm
04:19 69.1 °F /  20.6 °C 57.4 °F /  14.1 °C 29.9in /  1011.6hPa Sur 2.4mph /  3.9km/h 6.9mph /  11.1km/h 66.5% 0in /  0.0mm
04:24 69.4 °F /  20.8 °C 57.4 °F /  14.1 °C 29.9in /  1011.6hPa Sur 3.6mph /  5.8km/h 7mph /  11.3km/h 65.8% 0in /  0.0mm
04:29 69.6 °F /  20.9 °C 57.2 °F /  14 °C 29.9in /  1011.6hPa Sur 3.8mph /  6.1km/h 7mph /  11.3km/h 64.6% 0in /  0.0mm
04:34 70 °F /  21.1 °C 56.7 °F /  13.7 °C 29.9in /  1011.6hPa Sur 4.3mph /  6.9km/h 7mph /  11.3km/h 62.8% 0in /  0.0mm
04:39 70.3 °F /  21.3 °C 56.5 °F /  13.6 °C 29.9in /  1011.5hPa Sur 4.6mph /  7.4km/h 8.1mph /  13km/h 61.6% 0in /  0.0mm
04:44 70.5 °F /  21.4 °C 56.3 °F /  13.5 °C 29.9in /  1011.5hPa SSO 5.2mph /  8.4km/h 8.1mph /  13km/h 60.9% 0in /  0.0mm
04:49 70.5 °F /  21.4 °C 56.3 °F /  13.5 °C 29.9in /  1011.6hPa Sur 5mph /  8.1km/h 7mph /  11.3km/h 60.6% 0in /  0.0mm
04:54 70.5 °F /  21.4 °C 56.5 °F /  13.6 °C 29.9in /  1011.6hPa Sur 4.7mph /  7.6km/h 7mph /  11.3km/h 61% 0in /  0.0mm
04:59 70.3 °F /  21.3 °C 56.7 °F /  13.7 °C 29.9in /  1011.6hPa SO 4mph /  6.4km/h 5mph /  8km/h 61.9% 0in /  0.0mm
05:04 70.2 °F /  21.2 °C 56.5 °F /  13.6 °C 29.9in /  1011.6hPa SO 3.1mph /  5km/h 5mph /  8km/h 62% 0in /  0.0mm
05:09 70.2 °F /  21.2 °C 57 °F /  13.9 °C 29.9in /  1011.6hPa SO 2.7mph /  4.4km/h 4mph /  6.4km/h 63% 0in /  0.0mm
05:14 70 °F /  21.1 °C 57.2 °F /  14 °C 29.9in /  1011.6hPa SSO 2mph /  3.2km/h 4.3mph /  6.9km/h 64.1% 0in /  0.0mm
05:19 69.4 °F /  20.8 °C 57.2 °F /  14 °C 29.9in /  1011.6hPa SSE 2.1mph /  3.4km/h 5.4mph /  8.7km/h 65.3% 0in /  0.0mm
05:24 68.7 °F /  20.4 °C 57 °F /  13.9 °C 29.9in /  1011.6hPa Sur 2.4mph /  3.9km/h 6mph /  9.7km/h 66.4% 0in /  0.0mm
05:29 68.4 °F /  20.2 °C 57 °F /  13.9 °C 29.9in /  1011.6hPa SSE 2.8mph /  4.5km/h 6mph /  9.7km/h 67% 0in /  0.0mm
05:34 68.2 °F /  20.1 °C 56.8 °F /  13.8 °C 29.9in /  1011.7hPa SSE 3.6mph /  5.8km/h 6mph /  9.7km/h 67.4% 0in /  0.0mm
05:39 68 °F /  20 °C 56.8 °F /  13.8 °C 29.9in /  1011.7hPa SSE 3.6mph /  5.8km/h 5mph /  8km/h 67.4% 0in /  0.0mm
05:44 68.2 °F /  20.1 °C 56.8 °F /  13.8 °C 29.9in /  1011.7hPa SSE 3.6mph /  5.8km/h 5mph /  8km/h 67% 0in /  0.0mm
05:49 68.4 °F /  20.2 °C 56.8 °F /  13.8 °C 29.9in /  1011.7hPa SSE 3.4mph /  5.4km/h 5.8mph /  9.3km/h 66.8% 0in /  0.0mm
05:54 68.5 °F /  20.3 °C 56.7 °F /  13.7 °C 29.9in /  1011.7hPa SSE 2.9mph /  4.7km/h 6mph /  9.7km/h 66% 0in /  0.0mm
05:59 68.5 °F /  20.3 °C 56.5 °F /  13.6 °C 29.9in /  1011.7hPa Sur 3.2mph /  5.2km/h 6.2mph /  10km/h 65% 0in /  0.0mm
06:04 68.9 °F /  20.5 °C 56.3 °F /  13.5 °C 29.9in /  1011.7hPa Sur 3.6mph /  5.8km/h 7.4mph /  11.9km/h 64% 0in /  0.0mm
06:09 69.3 °F /  20.7 °C 56.5 °F /  13.6 °C 29.9in /  1011.7hPa Sur 4mph /  6.4km/h 7mph /  11.3km/h 64% 0in /  0.0mm
06:14 69.3 °F /  20.7 °C 56.7 °F /  13.7 °C 29.9in /  1011.7hPa SSO 4.7mph /  7.6km/h 6mph /  9.7km/h 64% 0in /  0.0mm
06:19 69.3 °F /  20.7 °C 56.7 °F /  13.7 °C 29.9in /  1011.7hPa SSO 4.3mph /  7km/h 5.8mph /  9.3km/h 64% 0in /  0.0mm
06:24 69.3 °F /  20.7 °C 56.7 °F /  13.7 °C 29.9in /  1011.7hPa SO 3.6mph /  5.8km/h 6mph /  9.7km/h 64% 0in /  0.0mm
06:29 69.3 °F /  20.7 °C 56.7 °F /  13.7 °C 29.9in /  1011.7hPa SO 3.4mph /  5.5km/h 6.4mph /  10.3km/h 64% 0in /  0.0mm
06:34 69.3 °F /  20.7 °C 56.5 °F /  13.6 °C 29.9in /  1011.7hPa SO 3.1mph /  5km/h 7mph /  11.3km/h 63.7% 0in /  0.0mm
06:39 69.3 °F /  20.7 °C 56.1 °F /  13.4 °C 29.9in /  1011.7hPa SO 3.3mph /  5.3km/h 7mph /  11.3km/h 63% 0in /  0.0mm
06:44 69.3 °F /  20.7 °C 56.1 °F /  13.4 °C 29.9in /  1011.7hPa SO 3.6mph /  5.8km/h 5.8mph /  9.3km/h 62.9% 0in /  0.0mm
06:49 69.3 °F /  20.7 °C 55.8 °F /  13.2 °C 29.9in /  1011.7hPa SO 3.6mph /  5.8km/h 6.2mph /  10km/h 62.1% 0in /  0.0mm
06:54 69.4 °F /  20.8 °C 55.9 °F /  13.3 °C 29.9in /  1011.7hPa SO 3.6mph /  5.8km/h 6.2mph /  10km/h 62% 0in /  0.0mm
06:59 69.3 °F /  20.7 °C 55.8 °F /  13.2 °C 29.9in /  1011.7hPa SO 3.6mph /  5.8km/h 6mph /  9.7km/h 62.2% 0in /  0.0mm
07:04 69.4 °F /  20.8 °C 55.9 °F /  13.3 °C 29.9in /  1011.9hPa OSO 3.6mph /  5.8km/h 6mph /  9.7km/h 62% 0in /  0.0mm
07:09 69.4 °F /  20.8 °C 55.6 °F /  13.1 °C 29.9in /  1011.9hPa SO 3.4mph /  5.4km/h 5.9mph /  9.5km/h 61.3% 0in /  0.0mm
07:14 69.4 °F /  20.8 °C 55.4 °F /  13 °C 29.9in /  1011.9hPa SO 2.9mph /  4.6km/h 6.9mph /  11.1km/h 61% 0in /  0.0mm
07:19 69.4 °F /  20.8 °C 55.4 °F /  13 °C 29.9in /  1012.2hPa SO 2.9mph /  4.7km/h 7mph /  11.3km/h 60.8% 0in /  0.0mm
07:24 69.4 °F /  20.8 °C 54.9 °F /  12.7 °C 29.9in /  1012.2hPa SO 2.9mph /  4.7km/h 7.6mph /  12.2km/h 60.1% 0in /  0.0mm
07:29 69.4 °F /  20.8 °C 54.9 °F /  12.7 °C 29.9in /  1012.2hPa OSO 3.2mph /  5.2km/h 8.1mph /  13km/h 60% 0in /  0.0mm
07:34 69.4 °F /  20.8 °C 54.9 °F /  12.7 °C 29.9in /  1012.3hPa OSO 4mph /  6.5km/h 7mph /  11.3km/h 60% 0in /  0.0mm
07:39 69.4 °F /  20.8 °C 54.9 °F /  12.7 °C 29.9in /  1012.3hPa SO 3.9mph /  6.2km/h 6.4mph /  10.3km/h 60% 0in /  0.0mm
07:44 69.4 °F /  20.8 °C 55 °F /  12.8 °C 29.9in /  1012.3hPa SO 3.6mph /  5.8km/h 7mph /  11.3km/h 60% 0in /  0.0mm
07:49 69.6 °F /  20.9 °C 54.7 °F /  12.6 °C 29.9in /  1012.3hPa SO 3.7mph /  6km/h 6.2mph /  10km/h 59% 0in /  0.0mm
07:54 70 °F /  21.1 °C 55 °F /  12.8 °C 29.9in /  1012.3hPa SO 4mph /  6.5km/h 6mph /  9.7km/h 59% 0in /  0.0mm
07:59 70.2 °F /  21.2 °C 55 °F /  12.8 °C 29.9in /  1012.3hPa SO 4.2mph /  6.7km/h 6.9mph /  11.1km/h 58.5% 0in /  0.0mm
08:04 70.5 °F /  21.4 °C 55 °F /  12.8 °C 29.9in /  1012.4hPa SO 4.3mph /  6.9km/h 7mph /  11.3km/h 57.9% 0in /  0.0mm
08:09 70.9 °F /  21.6 °C 55 °F /  12.8 °C 29.9in /  1012.4hPa OSO 4.3mph /  6.9km/h 7mph /  11.3km/h 57.1% 0in /  0.0mm
08:14 71.1 °F /  21.7 °C 55 °F /  12.8 °C 29.9in /  1012.4hPa OSO 4.3mph /  6.9km/h 6mph /  9.7km/h 57% 0in /  0.0mm
08:19 71.2 °F /  21.8 °C 55.2 °F /  12.9 °C 29.9in /  1012.5hPa SO 3.7mph /  5.9km/h 5mph /  8km/h 56.9% 0in /  0.0mm
08:24 71.4 °F /  21.9 °C 55 °F /  12.8 °C 29.9in /  1012.5hPa SSO 2.4mph /  3.9km/h 5.4mph /  8.7km/h 56.1% 0in /  0.0mm
08:29 71.6 °F /  22 °C 55.2 °F /  12.9 °C 29.9in /  1012.5hPa SSO 2.8mph /  4.5km/h 6mph /  9.7km/h 56.1% 0in /  0.0mm
08:34 71.8 °F /  22.1 °C 55.2 °F /  12.9 °C 29.9in /  1012.6hPa SO 3.6mph /  5.8km/h 6mph /  9.7km/h 56.1% 0in /  0.0mm
08:39 72 °F /  22.2 °C 55.4 °F /  13 °C 29.9in /  1012.6hPa SSO 3.6mph /  5.8km/h 6.9mph /  11.1km/h 56% 0in /  0.0mm
08:44 72 °F /  22.2 °C 55.4 °F /  13 °C 29.9in /  1012.6hPa SSO 3.6mph /  5.8km/h 7mph /  11.3km/h 56.1% 0in /  0.0mm
08:49 72.1 °F /  22.3 °C 55.8 °F /  13.2 °C 29.9in /  1012.7hPa SSO 4mph /  6.4km/h 7.4mph /  11.9km/h 56.3% 0in /  0.0mm
08:54 72.3 °F /  22.4 °C 55.8 °F /  13.2 °C 29.9in /  1012.7hPa SO 4.7mph /  7.6km/h 7mph /  11.3km/h 56% 0in /  0.0mm
08:59 72.7 °F /  22.6 °C 56.1 °F /  13.4 °C 29.9in /  1012.7hPa SO 4.4mph /  7.1km/h 8.5mph /  13.7km/h 56% 0in /  0.0mm
09:04 73 °F /  22.8 °C 56.1 °F /  13.4 °C 29.9in /  1012.8hPa SO 4mph /  6.5km/h 9mph /  14.5km/h 55.5% 0in /  0.0mm
09:09 73.2 °F /  22.9 °C 56.1 °F /  13.4 °C 29.9in /  1012.8hPa SO 4.1mph /  6.6km/h 9.2mph /  14.8km/h 55% 0in /  0.0mm
09:14 73.6 °F /  23.1 °C 56.3 °F /  13.5 °C 29.9in /  1012.8hPa SO 4.3mph /  6.9km/h 9.2mph /  14.8km/h 55% 0in /  0.0mm
09:19 73.8 °F /  23.2 °C 56.7 °F /  13.7 °C 29.9in /  1012.9hPa OSO 4.7mph /  7.5km/h 10.4mph /  16.7km/h 55% 0in /  0.0mm
09:24 73.9 °F /  23.3 °C 56.8 °F /  13.8 °C 29.9in /  1012.9hPa SO 5.4mph /  8.7km/h 10mph /  16.1km/h 55% 0in /  0.0mm
09:29 74.3 °F /  23.5 °C 57 °F /  13.9 °C 29.9in /  1012.9hPa SO 5mph /  8.1km/h 12.3mph /  19.8km/h 55% 0in /  0.0mm
09:34 74.5 °F /  23.6 °C 57.4 °F /  14.1 °C 29.9in /  1013.0hPa OSO 4.3mph /  6.9km/h 13mph /  20.9km/h 55% 0in /  0.0mm
09:39 74.7 °F /  23.7 °C 57.4 °F /  14.1 °C 29.9in /  1013.0hPa OSO 4.7mph /  7.5km/h 11.2mph /  18km/h 55% 0in /  0.0mm
09:44 74.8 °F /  23.8 °C 57.7 °F /  14.3 °C 29.9in /  1013.0hPa OSO 5.4mph /  8.7km/h 14.5mph /  23.3km/h 55% 0in /  0.0mm
09:49 75 °F /  23.9 °C 57.7 °F /  14.3 °C 29.9in /  1013.0hPa Oeste 6.1mph /  9.8km/h 15.6mph /  25.1km/h 55% 0in /  0.0mm
09:54 75.2 °F /  24 °C 57.9 °F /  14.4 °C 29.9in /  1012.9hPa ONO 7.6mph /  12.2km/h 16.1mph /  25.9km/h 55% 0in /  0.0mm
09:59 75.4 °F /  24.1 °C 58.1 °F /  14.5 °C 29.9in /  1012.9hPa ONO 7.8mph /  12.6km/h 15mph /  24.1km/h 55% 0in /  0.0mm
10:04 75.6 °F /  24.2 °C 57.9 °F /  14.4 °C 29.9in /  1012.9hPa Oeste 8.1mph /  13km/h 12mph /  19.3km/h 54.4% 0in /  0.0mm
10:09 75.7 °F /  24.3 °C 57.9 °F /  14.4 °C 29.9in /  1012.9hPa SO 7.5mph /  12.1km/h 12mph /  19.3km/h 54% 0in /  0.0mm
10:14 75.7 °F /  24.3 °C 57.9 °F /  14.4 °C 29.9in /  1012.9hPa Oeste 6.4mph /  10.3km/h 10.4mph /  16.7km/h 53.9% 0in /  0.0mm
10:19 75.7 °F /  24.3 °C 57.9 °F /  14.4 °C 29.9in /  1013.0hPa OSO 6.1mph /  9.8km/h 10mph /  16.1km/h 53.7% 0in /  0.0mm
10:24 76.3 °F /  24.6 °C 57.9 °F /  14.4 °C 29.9in /  1013.0hPa SSO 5.4mph /  8.7km/h 8mph /  12.9km/h 53.2% 0in /  0.0mm
10:29 76.6 °F /  24.8 °C 57.7 °F /  14.3 °C 29.9in /  1013.0hPa OSO 5.2mph /  8.3km/h 10.7mph /  17.2km/h 52.3% 0in /  0.0mm
10:34 76.6 °F /  24.8 °C 57.6 °F /  14.2 °C 29.9in /  1013.0hPa OSO 4.7mph /  7.6km/h 11mph /  17.7km/h 51.8% 0in /  0.0mm
10:39 76.6 °F /  24.8 °C 57.7 °F /  14.3 °C 29.9in /  1012.9hPa SO 5.2mph /  8.3km/h 10mph /  16.1km/h 52% 0in /  0.0mm
10:44 77 °F /  25 °C 57.9 °F /  14.4 °C 29.9in /  1012.9hPa ONO 5.9mph /  9.5km/h 8.5mph /  13.7km/h 51.7% 0in /  0.0mm
10:49 77.2 °F /  25.1 °C 57.9 °F /  14.4 °C 29.9in /  1013.0hPa OSO 5.3mph /  8.6km/h 9mph /  14.5km/h 51.7% 0in /  0.0mm
10:54 77.4 °F /  25.2 °C 57.6 °F /  14.2 °C 29.9in /  1013.0hPa Oeste 4.3mph /  6.9km/h 9.2mph /  14.8km/h 50.7% 0in /  0.0mm
10:59 77.5 °F /  25.3 °C 57.7 °F /  14.3 °C 29.9in /  1013.0hPa OSO 4.2mph /  6.7km/h 10.7mph /  17.2km/h 50.4% 0in /  0.0mm
11:04 77.7 °F /  25.4 °C 57.6 °F /  14.2 °C 29.9in /  1013.0hPa OSO 4mph /  6.5km/h 11mph /  17.7km/h 50% 0in /  0.0mm
11:09 78.3 °F /  25.7 °C 58.1 °F /  14.5 °C 29.9in /  1013.0hPa ONO 4.4mph /  7.1km/h 11.5mph /  18.5km/h 50.2% 0in /  0.0mm
11:14 78.3 °F /  25.7 °C 58.1 °F /  14.5 °C 29.9in /  1013.0hPa OSO 5.2mph /  8.4km/h 12mph /  19.3km/h 50% 0in /  0.0mm
11:19 78.3 °F /  25.7 °C 58.1 °F /  14.5 °C 29.9in /  1013.1hPa ONO 4.9mph /  7.9km/h 9mph /  14.5km/h 50% 0in /  0.0mm
11:24 78.4 °F /  25.8 °C 58.1 °F /  14.5 °C 29.9in /  1013.1hPa Oeste 4.3mph /  6.9km/h 8.5mph /  13.7km/h 49.5% 0in /  0.0mm
11:29 78.4 °F /  25.8 °C 57.6 °F /  14.2 °C 29.9in /  1013.1hPa Oeste 4.6mph /  7.4km/h 10.4mph /  16.7km/h 48.5% 0in /  0.0mm
11:34 78.4 °F /  25.8 °C 57.7 °F /  14.3 °C 29.9in /  1013.1hPa SO 5.2mph /  8.4km/h 10mph /  16.1km/h 49% 0in /  0.0mm
11:39 78.6 °F /  25.9 °C 57.9 °F /  14.4 °C 29.9in /  1013.1hPa SSO 4.7mph /  7.5km/h 8mph /  12.9km/h 49% 0in /  0.0mm
11:44 79.3 °F /  26.3 °C 58.3 °F /  14.6 °C 29.9in /  1013.1hPa NNE 3.6mph /  5.8km/h 6.9mph /  11.1km/h 48.7% 0in /  0.0mm
11:49 80.1 °F /  26.7 °C 58.3 °F /  14.6 °C 29.9in /  1013.1hPa NO 3.4mph /  5.4km/h 8.1mph /  13km/h 47.7% 0in /  0.0mm
11:54 80.2 °F /  26.8 °C 58.6 °F /  14.8 °C 29.9in /  1012.9hPa North 2.9mph /  4.6km/h 8mph /  12.9km/h 47.6% 0in /  0.0mm
11:59 80.8 °F /  27.1 °C 57.7 °F /  14.3 °C 29.9in /  1012.9hPa Oeste 3mph /  4.8km/h 7.6mph /  12.2km/h 45.4% 0in /  0.0mm
12:04 80.8 °F /  27.1 °C 56.8 °F /  13.8 °C 29.9in /  1012.9hPa NNO 3.1mph /  5km/h 9.2mph /  14.8km/h 44.1% 0in /  0.0mm
12:09 81 °F /  27.2 °C 57 °F /  13.9 °C 29.9in /  1012.9hPa SSE 3.3mph /  5.3km/h 9.2mph /  14.8km/h 44.1% 0in /  0.0mm
12:14 81.1 °F /  27.3 °C 57.2 °F /  14 °C 29.9in /  1012.9hPa ONO 3.6mph /  5.8km/h 10mph /  16.1km/h 43.9% 0in /  0.0mm
12:19 81.5 °F /  27.5 °C 56.5 °F /  13.6 °C 29.9in /  1012.9hPa Oeste 3.7mph /  6km/h 10.4mph /  16.7km/h 42.5% 0in /  0.0mm
12:24 81.1 °F /  27.3 °C 56.5 °F /  13.6 °C 29.9in /  1012.7hPa Oeste 4mph /  6.5km/h 10mph /  16.1km/h 42.8% 0in /  0.0mm
12:29 81 °F /  27.2 °C 56.5 °F /  13.6 °C 29.9in /  1012.7hPa NO 4.4mph /  7.1km/h 8.1mph /  13km/h 43% 0in /  0.0mm
12:34 81.1 °F /  27.3 °C 56.5 °F /  13.6 °C 29.9in /  1012.7hPa NNE 5.2mph /  8.4km/h 7mph /  11.3km/h 43% 0in /  0.0mm
12:39 81.9 °F /  27.7 °C 56.8 °F /  13.8 °C 29.9in /  1012.7hPa North 4.1mph /  6.6km/h 6.9mph /  11.1km/h 42.5% 0in /  0.0mm
12:44 82.2 °F /  27.9 °C 56.7 °F /  13.7 °C 29.9in /  1012.7hPa NNO 2mph /  3.2km/h 8.5mph /  13.7km/h 41.8% 0in /  0.0mm
12:49 82.2 °F /  27.9 °C 56.8 °F /  13.8 °C 29.9in /  1012.7hPa North 3.1mph /  5km/h 11.5mph /  18.5km/h 42% 0in /  0.0mm
12:54 82 °F /  27.8 °C 56.7 °F /  13.7 °C 29.9in /  1012.4hPa NO 5.2mph /  8.4km/h 12mph /  19.3km/h 42% 0in /  0.0mm
12:59 81.9 °F /  27.7 °C 56.7 °F /  13.7 °C 29.9in /  1012.4hPa North 5.7mph /  9.1km/h 11mph /  17.7km/h 42% 0in /  0.0mm
13:04 82 °F /  27.8 °C 56.8 °F /  13.8 °C 29.9in /  1012.4hPa NNE 6.2mph /  10km/h 10mph /  16.1km/h 42% 0in /  0.0mm
13:09 82.4 °F /  28 °C 56.8 °F /  13.8 °C 29.9in /  1012.4hPa Este 5.5mph /  8.8km/h 8.1mph /  13km/h 41.6% 0in /  0.0mm
13:14 82.8 °F /  28.2 °C 56.8 °F /  13.8 °C 29.9in /  1012.4hPa ESE 4mph /  6.5km/h 8.1mph /  13km/h 41.4% 0in /  0.0mm
13:19 83.1 °F /  28.4 °C 56.8 °F /  13.8 °C 29.9in /  1012.4hPa OSO 4.1mph /  6.6km/h 10.4mph /  16.7km/h 40.6% 0in /  0.0mm
13:24 83.5 °F /  28.6 °C 56.7 °F /  13.7 °C 29.9in /  1012.2hPa OSO 4.3mph /  6.9km/h 10.4mph /  16.7km/h 40% 0in /  0.0mm
13:29 83.8 °F /  28.8 °C 56.8 °F /  13.8 °C 29.9in /  1012.2hPa OSO 3.9mph /  6.3km/h 8.5mph /  13.7km/h 40% 0in /  0.0mm
13:34 84.6 °F /  29.2 °C 57 °F /  13.9 °C 29.9in /  1012.2hPa OSO 3.1mph /  5km/h 9mph /  14.5km/h 39.2% 0in /  0.0mm
13:39 84.7 °F /  29.3 °C 57 °F /  13.9 °C 29.9in /  1012.0hPa Oeste 3.4mph /  5.5km/h 7mph /  11.3km/h 39% 0in /  0.0mm
13:44 84.9 °F /  29.4 °C 57 °F /  13.9 °C 29.9in /  1012.0hPa NO 4mph /  6.5km/h 7mph /  11.3km/h 38.9% 0in /  0.0mm
13:49 84.9 °F /  29.4 °C 56.8 °F /  13.8 °C 29.9in /  1012.0hPa Oeste 3.9mph /  6.2km/h 7mph /  11.3km/h 38.5% 0in /  0.0mm
13:54 85.3 °F /  29.6 °C 56.8 °F /  13.8 °C 29.9in /  1011.9hPa Sur 3.6mph /  5.8km/h 8.1mph /  13km/h 38.1% 0in /  0.0mm
13:59 85.3 °F /  29.6 °C 56.8 °F /  13.8 °C 29.9in /  1011.9hPa ESE 3.8mph /  6.1km/h 8.1mph /  13km/h 38% 0in /  0.0mm
14:04 85.3 °F /  29.6 °C 56.8 °F /  13.8 °C 29.9in /  1011.9hPa SE 4mph /  6.5km/h 8.5mph /  13.7km/h 38% 0in /  0.0mm
14:09 85.5 °F /  29.7 °C 57 °F /  13.9 °C 29.9in /  1011.7hPa SE 4.1mph /  6.6km/h 9mph /  14.5km/h 38% 0in /  0.0mm
14:14 85.5 °F /  29.7 °C 57 °F /  13.9 °C 29.9in /  1011.7hPa SE 4.3mph /  6.9km/h 8mph /  12.9km/h 38% 0in /  0.0mm
14:19 85.6 °F /  29.8 °C 57.2 °F /  14 °C 29.9in /  1011.7hPa ONO 4.3mph /  6.9km/h 9.2mph /  14.8km/h 38% 0in /  0.0mm
14:24 85.8 °F /  29.9 °C 56.8 °F /  13.8 °C 29.9in /  1011.5hPa Oeste 4.3mph /  6.9km/h 9.2mph /  14.8km/h 37.6% 0in /  0.0mm
14:29 85.8 °F /  29.9 °C 56.5 °F /  13.6 °C 29.9in /  1011.5hPa SSO 4.8mph /  7.8km/h 9.7mph /  15.6km/h 37% 0in /  0.0mm
14:34 85.8 °F /  29.9 °C 56.7 °F /  13.7 °C 29.9in /  1011.5hPa SSE 5.9mph /  9.5km/h 10mph /  16.1km/h 37% 0in /  0.0mm
14:39 86.4 °F /  30.2 °C 57 °F /  13.9 °C 29.9in /  1011.3hPa ESE 5.5mph /  8.9km/h 9mph /  14.5km/h 37% 0in /  0.0mm
14:44 86.5 °F /  30.3 °C 57.2 °F /  14 °C 29.9in /  1011.3hPa ONO 4.7mph /  7.6km/h 7mph /  11.3km/h 36.8% 0in /  0.0mm
14:49 87.3 °F /  30.7 °C 57.2 °F /  14 °C 29.9in /  1011.3hPa NNE 4.2mph /  6.7km/h 7.4mph /  11.9km/h 36.2% 0in /  0.0mm
14:54 87.4 °F /  30.8 °C 56.8 °F /  13.8 °C 29.9in /  1011.2hPa ENE 2.9mph /  4.7km/h 8.5mph /  13.7km/h 35.5% 0in /  0.0mm
14:59 87.4 °F /  30.8 °C 56.7 °F /  13.7 °C 29.9in /  1011.2hPa SE 3.2mph /  5.2km/h 9mph /  14.5km/h 35.2% 0in /  0.0mm
15:04 87.6 °F /  30.9 °C 56.7 °F /  13.7 °C 29.9in /  1011.2hPa SE 3.6mph /  5.8km/h 9.2mph /  14.8km/h 35% 0in /  0.0mm
15:09 87.4 °F /  30.8 °C 56.7 °F /  13.7 °C 29.9in /  1011.0hPa SSE 3.9mph /  6.2km/h 9mph /  14.5km/h 35.3% 0in /  0.0mm
15:14 87.6 °F /  30.9 °C 56.7 °F /  13.7 °C 29.9in /  1011.0hPa SE 4.3mph /  6.9km/h 8mph /  12.9km/h 35% 0in /  0.0mm
15:19 87.6 °F /  30.9 °C 57 °F /  13.9 °C 29.9in /  1011.0hPa ESE 4.4mph /  7.1km/h 17.3mph /  27.8km/h 35.6% 0in /  0.0mm
15:24 87.6 °F /  30.9 °C 57.6 °F /  14.2 °C 29.9in /  1010.9hPa ESE 4.7mph /  7.6km/h 17mph /  27.4km/h 36.2% 0in /  0.0mm
15:29 88.2 °F /  31.2 °C 57.6 °F /  14.2 °C 29.9in /  1010.9hPa ESE 6.2mph /  10km/h 16.3mph /  26.2km/h 35.6% 0in /  0.0mm
15:34 87.8 °F /  31 °C 57.6 °F /  14.2 °C 29.9in /  1010.9hPa ESE 9.2mph /  14.8km/h 16mph /  25.7km/h 36% 0in /  0.0mm
15:39 88 °F /  31.1 °C 57.6 °F /  14.2 °C 29.8in /  1010.7hPa ESE 8.9mph /  14.4km/h 17mph /  27.4km/h 35.9% 0in /  0.0mm
15:44 87.8 °F /  31 °C 57.4 °F /  14.1 °C 29.8in /  1010.7hPa ESE 8.5mph /  13.7km/h 17.3mph /  27.8km/h 35.9% 0in /  0.0mm
15:49 87.8 °F /  31 °C 57 °F /  13.9 °C 29.8in /  1010.7hPa ESE 9.4mph /  15.2km/h 17.5mph /  28.2km/h 35.3% 0in /  0.0mm
15:54 87.8 °F /  31 °C 56.8 °F /  13.8 °C 29.8in /  1010.7hPa ESE 11.4mph /  18.4km/h 17mph /  27.4km/h 35.1% 0in /  0.0mm
15:59 87.8 °F /  31 °C 57.2 °F /  14 °C 29.8in /  1010.7hPa SE 10.7mph /  17.2km/h 18.5mph /  29.8km/h 35.5% 0in /  0.0mm
16:04 87.4 °F /  30.8 °C 56.8 °F /  13.8 °C 29.9in /  1010.8hPa SSE 9.7mph /  15.6km/h 20.7mph /  33.3km/h 35.6% 0in /  0.0mm
16:09 87.4 °F /  30.8 °C 57 °F /  13.9 °C 29.9in /  1010.8hPa SE 10.2mph /  16.4km/h 21mph /  33.8km/h 35.8% 0in /  0.0mm
16:14 88.2 °F /  31.2 °C 57 °F /  13.9 °C 29.9in /  1010.8hPa Sur 11.2mph /  18km/h 16.3mph /  26.2km/h 35.1% 0in /  0.0mm
16:19 88.2 °F /  31.2 °C 57 °F /  13.9 °C 29.9in /  1010.8hPa Sur 10.9mph /  17.5km/h 16mph /  25.7km/h 35% 0in /  0.0mm
16:24 88 °F /  31.1 °C 56.8 °F /  13.8 °C 29.8in /  1010.7hPa SSE 10.2mph /  16.4km/h 19.2mph /  30.9km/h 35% 0in /  0.0mm
16:29 87.8 °F /  31 °C 57.4 °F /  14.1 °C 29.8in /  1010.7hPa SE 9.7mph /  15.6km/h 19mph /  30.6km/h 35.7% 0in /  0.0mm
16:34 88.3 °F /  31.3 °C 57.2 °F /  14 °C 29.8in /  1010.7hPa SSE 8.7mph /  14km/h 15mph /  24.1km/h 35% 0in /  0.0mm
16:39 88.3 °F /  31.3 °C 57 °F /  13.9 °C 29.8in /  1010.5hPa Sur 8.9mph /  14.3km/h 17.8mph /  28.6km/h 34.8% 0in /  0.0mm
16:44 88 °F /  31.1 °C 56.7 °F /  13.7 °C 29.8in /  1010.5hPa SSE 9.2mph /  14.8km/h 18.4mph /  29.6km/h 34.7% 0in /  0.0mm
16:49 87.4 °F /  30.8 °C 56.5 °F /  13.6 °C 29.8in /  1010.5hPa SSE 10.1mph /  16.2km/h 17.3mph /  27.8km/h 35.3% 0in /  0.0mm
16:54 87.4 °F /  30.8 °C 56.5 °F /  13.6 °C 29.8in /  1010.4hPa SSE 11.8mph /  19km/h 17mph /  27.4km/h 35% 0in /  0.0mm
16:59 87.4 °F /  30.8 °C 56.5 °F /  13.6 °C 29.8in /  1010.4hPa SE 11.3mph /  18.2km/h 17.5mph /  28.2km/h 35% 0in /  0.0mm
17:04 87.6 °F /  30.9 °C 56.7 °F /  13.7 °C 29.8in /  1010.5hPa SE 10.7mph /  17.2km/h 18.5mph /  29.8km/h 35% 0in /  0.0mm
17:09 87.4 °F /  30.8 °C 57 °F /  13.9 °C 29.8in /  1010.5hPa SSE 10.5mph /  16.9km/h 19mph /  30.6km/h 35.7% 0in /  0.0mm
17:14 88 °F /  31.1 °C 56.8 °F /  13.8 °C 29.8in /  1010.5hPa SSE 10.2mph /  16.4km/h 17.3mph /  27.8km/h 35% 0in /  0.0mm
17:19 87.4 °F /  30.8 °C 56.5 °F /  13.6 °C 29.8in /  1010.5hPa SSE 10.2mph /  16.4km/h 17mph /  27.4km/h 35% 0in /  0.0mm
17:24 87.3 °F /  30.7 °C 56.8 °F /  13.8 °C 29.8in /  1010.4hPa SSE 10.2mph /  16.4km/h 19mph /  30.6km/h 35.7% 0in /  0.0mm
17:29 87.4 °F /  30.8 °C 57.2 °F /  14 °C 29.8in /  1010.4hPa SSE 10.6mph /  17.1km/h 19mph /  30.6km/h 36% 0in /  0.0mm
17:34 87.4 °F /  30.8 °C 57 °F /  13.9 °C 29.8in /  1010.4hPa Sur 11.4mph /  18.4km/h 18.5mph /  29.8km/h 35.7% 0in /  0.0mm
17:39 87.1 °F /  30.6 °C 56.8 °F /  13.8 °C 29.8in /  1010.3hPa SSE 11.8mph /  19km/h 19mph /  30.6km/h 36% 0in /  0.0mm
17:44 87.1 °F /  30.6 °C 56.8 °F /  13.8 °C 29.8in /  1010.3hPa SSE 12.5mph /  20.1km/h 19.6mph /  31.5km/h 36% 0in /  0.0mm
17:49 87.1 °F /  30.6 °C 56.8 °F /  13.8 °C 29.8in /  1010.3hPa SE 12.2mph /  19.7km/h 20mph /  32.2km/h 36% 0in /  0.0mm
17:54 87.3 °F /  30.7 °C 57 °F /  13.9 °C 29.8in /  1010.3hPa SSE 11.8mph /  19km/h 19.7mph /  31.7km/h 36% 0in /  0.0mm
17:59 87.4 °F /  30.8 °C 57 °F /  13.9 °C 29.8in /  1010.3hPa SSE 11mph /  17.7km/h 20mph /  32.2km/h 35.8% 0in /  0.0mm
18:04 87.3 °F /  30.7 °C 57 °F /  13.9 °C 29.8in /  1010.3hPa SSE 10mph /  16.1km/h 18.1mph /  29.1km/h 36% 0in /  0.0mm
18:09 86.9 °F /  30.5 °C 56.7 °F /  13.7 °C 29.8in /  1010.3hPa SSE 10.6mph /  17km/h 20.4mph /  32.8km/h 36% 0in /  0.0mm
18:14 86.4 °F /  30.2 °C 56.5 °F /  13.6 °C 29.8in /  1010.3hPa SSE 11.8mph /  19km/h 21mph /  33.8km/h 36.1% 0in /  0.0mm
18:19 86.4 °F /  30.2 °C 56.3 °F /  13.5 °C 29.8in /  1010.3hPa SSE 12.1mph /  19.4km/h 21mph /  33.8km/h 36% 0in /  0.0mm
18:24 86.4 °F /  30.2 °C 56.3 °F /  13.5 °C 29.8in /  1010.3hPa SSE 12.5mph /  20.1km/h 18.5mph /  29.8km/h 36.1% 0in /  0.0mm
18:29 86.4 °F /  30.2 °C 56.8 °F /  13.8 °C 29.8in /  1010.3hPa SSE 12.3mph /  19.8km/h 19mph /  30.6km/h 36.9% 0in /  0.0mm
18:34 86.4 °F /  30.2 °C 56.8 °F /  13.8 °C 29.8in /  1010.3hPa SSE 11.8mph /  19km/h 16.1mph /  25.9km/h 36.6% 0in /  0.0mm
18:39 86.4 °F /  30.2 °C 56.7 °F /  13.7 °C 29.8in /  1010.2hPa SSE 11.6mph /  18.7km/h 19mph /  30.6km/h 36.6% 0in /  0.0mm
18:44 86.2 °F /  30.1 °C 56.7 °F /  13.7 °C 29.8in /  1010.2hPa SSE 11.2mph /  18km/h 19mph /  30.6km/h 36.8% 0in /  0.0mm
18:49 86.2 °F /  30.1 °C 56.8 °F /  13.8 °C 29.8in /  1010.2hPa SSE 11.1mph /  17.8km/h 18.4mph /  29.6km/h 36.9% 0in /  0.0mm
18:54 86.2 °F /  30.1 °C 56.8 °F /  13.8 °C 29.8in /  1010.2hPa SSE 10.7mph /  17.2km/h 18mph /  29km/h 37% 0in /  0.0mm
18:59 86.4 °F /  30.2 °C 57 °F /  13.9 °C 29.8in /  1010.2hPa SSE 10.1mph /  16.2km/h 14mph /  22.5km/h 37% 0in /  0.0mm
19:04 86.5 °F /  30.3 °C 56.8 °F /  13.8 °C 29.8in /  1010.2hPa SE 9.2mph /  14.8km/h 17.3mph /  27.8km/h 36.5% 0in /  0.0mm
19:09 86 °F /  30 °C 56.7 °F /  13.7 °C 29.8in /  1010.1hPa SE 9mph /  14.5km/h 17.3mph /  27.8km/h 37% 0in /  0.0mm
19:14 85.6 °F /  29.8 °C 56.5 °F /  13.6 °C 29.8in /  1010.1hPa SE 8.7mph /  14km/h 15mph /  24.1km/h 37.1% 0in /  0.0mm
19:19 85.3 °F /  29.6 °C 56.8 °F /  13.8 °C 29.8in /  1010.2hPa SE 8.6mph /  13.9km/h 15mph /  24.1km/h 38% 0in /  0.0mm
19:24 84.9 °F /  29.4 °C 56.5 °F /  13.6 °C 29.8in /  1010.2hPa SE 8.5mph /  13.7km/h 15mph /  24.1km/h 38% 0in /  0.0mm
19:29 84.7 °F /  29.3 °C 56.5 °F /  13.6 °C 29.8in /  1010.2hPa SE 8.5mph /  13.7km/h 15mph /  24.1km/h 38.3% 0in /  0.0mm
19:34 84.6 °F /  29.2 °C 56.8 °F /  13.8 °C 29.8in /  1010.2hPa SE 8.5mph /  13.7km/h 13mph /  20.9km/h 38.9% 0in /  0.0mm
19:39 84.2 °F /  29 °C 56.7 °F /  13.7 °C 29.8in /  1010.2hPa SE 7.8mph /  12.6km/h 12mph /  19.3km/h 39% 0in /  0.0mm
19:44 84 °F /  28.9 °C 56.5 °F /  13.6 °C 29.8in /  1010.2hPa SE 6.4mph /  10.3km/h 11mph /  17.7km/h 39% 0in /  0.0mm
19:49 84 °F /  28.9 °C 56.5 °F /  13.6 °C 29.8in /  1010.4hPa SE 6.4mph /  10.3km/h 12.5mph /  20.1km/h 39% 0in /  0.0mm
19:54 83.8 °F /  28.8 °C 56.3 °F /  13.5 °C 29.8in /  1010.4hPa SSE 6.4mph /  10.3km/h 13mph /  20.9km/h 39% 0in /  0.0mm
19:59 83.8 °F /  28.8 °C 56.1 °F /  13.4 °C 29.8in /  1010.4hPa SE 6.4mph /  10.3km/h 13mph /  20.9km/h 39% 0in /  0.0mm
20:04 83.5 °F /  28.6 °C 56.5 °F /  13.6 °C 29.8in /  1010.5hPa SE 6.4mph /  10.3km/h 9.2mph /  14.8km/h 39.8% 0in /  0.0mm
20:09 83.1 °F /  28.4 °C 56.3 °F /  13.5 °C 29.8in /  1010.5hPa SE 6.3mph /  10.1km/h 9.2mph /  14.8km/h 40% 0in /  0.0mm
20:14 83.1 °F /  28.4 °C 56.3 °F /  13.5 °C 29.8in /  1010.5hPa SE 5.9mph /  9.5km/h 9mph /  14.5km/h 40% 0in /  0.0mm
20:19 83.3 °F /  28.5 °C 56.5 °F /  13.6 °C 29.8in /  1010.6hPa ESE 5.7mph /  9.1km/h 9mph /  14.5km/h 40% 0in /  0.0mm
20:24 83.1 °F /  28.4 °C 56.3 °F /  13.5 °C 29.8in /  1010.6hPa ESE 5.2mph /  8.4km/h 8mph /  12.9km/h 40% 0in /  0.0mm
20:29 82.9 °F /  28.3 °C 56.1 °F /  13.4 °C 29.8in /  1010.6hPa ESE 4.8mph /  7.8km/h 8.5mph /  13.7km/h 40% 0in /  0.0mm
20:34 82.8 °F /  28.2 °C 56.1 °F /  13.4 °C 29.9in /  1010.8hPa SE 4mph /  6.5km/h 9.2mph /  14.8km/h 40.1% 0in /  0.0mm
20:39 82.4 °F /  28 °C 56.3 °F /  13.5 °C 29.9in /  1010.8hPa ESE 4.4mph /  7.1km/h 9mph /  14.5km/h 41% 0in /  0.0mm
20:44 82 °F /  27.8 °C 56.3 °F /  13.5 °C 29.9in /  1010.8hPa ESE 5.2mph /  8.4km/h 8.1mph /  13km/h 41.4% 0in /  0.0mm
20:49 81.7 °F /  27.6 °C 56.3 °F /  13.5 °C 29.9in /  1011.0hPa ESE 5.3mph /  8.5km/h 9.7mph /  15.6km/h 42% 0in /  0.0mm
20:54 81.3 °F /  27.4 °C 56.5 °F /  13.6 °C 29.9in /  1011.0hPa ESE 5.4mph /  8.7km/h 10mph /  16.1km/h 42.7% 0in /  0.0mm
20:59 81 °F /  27.2 °C 56.5 °F /  13.6 °C 29.9in /  1011.0hPa ESE 5.6mph /  9km/h 9mph /  14.5km/h 43% 0in /  0.0mm
21:04 80.8 °F /  27.1 °C 56.7 °F /  13.7 °C 29.9in /  1011.3hPa Este 5.9mph /  9.5km/h 8mph /  12.9km/h 43.7% 0in /  0.0mm
21:09 80.4 °F /  26.9 °C 56.5 °F /  13.6 °C 29.9in /  1011.3hPa ESE 5.1mph /  8.2km/h 6mph /  9.7km/h 44% 0in /  0.0mm
21:14 80.2 °F /  26.8 °C 56.3 °F /  13.5 °C 29.9in /  1011.3hPa ESE 3.6mph /  5.8km/h 8.1mph /  13km/h 44% 0in /  0.0mm
21:19 80.1 °F /  26.7 °C 56.5 °F /  13.6 °C 29.9in /  1011.5hPa Este 4mph /  6.4km/h 8.1mph /  13km/h 44.5% 0in /  0.0mm
21:24 79.7 °F /  26.5 °C 56.5 °F /  13.6 °C 29.9in /  1011.5hPa Este 4.7mph /  7.6km/h 8mph /  12.9km/h 45% 0in /  0.0mm
21:29 79.3 °F /  26.3 °C 56.3 °F /  13.5 °C 29.9in /  1011.5hPa Este 4.5mph /  7.2km/h 7.4mph /  11.9km/h 45% 0in /  0.0mm
21:34 79.3 °F /  26.3 °C 56.3 °F /  13.5 °C 29.9in /  1011.8hPa ESE 4mph /  6.5km/h 7mph /  11.3km/h 45.2% 0in /  0.0mm
21:39 79.2 °F /  26.2 °C 56.5 °F /  13.6 °C 29.9in /  1011.8hPa ESE 4mph /  6.5km/h 7mph /  11.3km/h 46% 0in /  0.0mm
21:44 79 °F /  26.1 °C 56.3 °F /  13.5 °C 29.9in /  1011.8hPa ESE 4mph /  6.5km/h 7.6mph /  12.2km/h 46% 0in /  0.0mm
21:49 78.6 °F /  25.9 °C 56.1 °F /  13.4 °C 29.9in /  1012.0hPa ESE 4mph /  6.5km/h 8.7mph /  14km/h 46% 0in /  0.0mm
21:54 78.4 °F /  25.8 °C 56.5 °F /  13.6 °C 29.9in /  1012.0hPa ESE 4mph /  6.5km/h 9.2mph /  14.8km/h 46.8% 0in /  0.0mm
21:59 78.4 °F /  25.8 °C 56.5 °F /  13.6 °C 29.9in /  1012.0hPa SE 4.3mph /  6.9km/h 7mph /  11.3km/h 47% 0in /  0.0mm
22:04 78.3 °F /  25.7 °C 56.3 °F /  13.5 °C 29.9in /  1012.2hPa SE 4.7mph /  7.6km/h 7mph /  11.3km/h 47% 0in /  0.0mm
22:09 78.1 °F /  25.6 °C 56.3 °F /  13.5 °C 29.9in /  1012.2hPa ESE 4.3mph /  7km/h 7mph /  11.3km/h 47.3% 0in /  0.0mm
22:14 77.9 °F /  25.5 °C 56.5 °F /  13.6 °C 29.9in /  1012.2hPa SE 3.6mph /  5.8km/h 6.2mph /  10km/h 47.7% 0in /  0.0mm
22:19 77.7 °F /  25.4 °C 56.5 °F /  13.6 °C 29.9in /  1012.4hPa SE 3.8mph /  6.1km/h 7.4mph /  11.9km/h 48% 0in /  0.0mm
22:24 77.7 °F /  25.4 °C 56.5 °F /  13.6 °C 29.9in /  1012.4hPa ESE 4.3mph /  6.9km/h 7mph /  11.3km/h 48% 0in /  0.0mm
22:29 77.5 °F /  25.3 °C 56.3 °F /  13.5 °C 29.9in /  1012.4hPa ESE 4.3mph /  6.9km/h 7mph /  11.3km/h 48% 0in /  0.0mm
22:34 77.5 °F /  25.3 °C 56.7 °F /  13.7 °C 29.9in /  1012.7hPa ESE 4.3mph /  6.9km/h 6mph /  9.7km/h 48.5% 0in /  0.0mm
22:39 77.5 °F /  25.3 °C 56.8 °F /  13.8 °C 29.9in /  1012.7hPa ESE 3.5mph /  5.7km/h 5mph /  8km/h 48.8% 0in /  0.0mm
22:44 77.5 °F /  25.3 °C 56.8 °F /  13.8 °C 29.9in /  1012.7hPa ESE 2mph /  3.2km/h 3mph /  4.8km/h 49% 0in /  0.0mm
22:49 77.4 °F /  25.2 °C 56.7 °F /  13.7 °C 29.9in /  1012.8hPa SE 1.8mph /  2.9km/h 4.7mph /  7.6km/h 49% 0in /  0.0mm
22:54 77.2 °F /  25.1 °C 56.7 °F /  13.7 °C 29.9in /  1012.8hPa ONO 1.4mph /  2.2km/h 5mph /  8km/h 49.3% 0in /  0.0mm
22:59 77 °F /  25 °C 56.8 °F /  13.8 °C 29.9in /  1012.8hPa ONO 1.4mph /  2.2km/h 4mph /  6.4km/h 50% 0in /  0.0mm
23:04 76.8 °F /  24.9 °C 56.8 °F /  13.8 °C 29.9in /  1013.1hPa NO 1.4mph /  2.2km/h 3mph /  4.8km/h 50% 0in /  0.0mm
23:09 76.6 °F /  24.8 °C 56.7 °F /  13.7 °C 29.9in /  1013.1hPa NO 0.9mph /  1.5km/h   50% 0in /  0.0mm
23:14 76.6 °F /  24.8 °C 56.7 °F /  13.7 °C 29.9in /  1013.1hPa Calm     50% 0in /  0.0mm
23:19 76.6 °F /  24.8 °C 56.7 °F /  13.7 °C 29.9in /  1013.2hPa Calm   3.6mph /  5.8km/h 50.2% 0in /  0.0mm
23:24 76.5 °F /  24.7 °C 57 °F /  13.9 °C 29.9in /  1013.2hPa Calm   4mph /  6.4km/h 51% 0in /  0.0mm
23:29 76.5 °F /  24.7 °C 56.8 °F /  13.8 °C 29.9in /  1013.2hPa Calm   3mph /  4.8km/h 51% 0in /  0.0mm
23:34 76.3 °F /  24.6 °C 56.8 °F /  13.8 °C 29.9in /  1013.3hPa Calm     51% 0in /  0.0mm
23:39 76.3 °F /  24.6 °C 56.8 °F /  13.8 °C 29.9in /  1013.3hPa Calm   2.3mph /  3.7km/h 51% 0in /  0.0mm
23:44 76.1 °F /  24.5 °C 57.2 °F /  14 °C 29.9in /  1013.3hPa Calm   3.5mph /  5.6km/h 51.8% 0in /  0.0mm
23:49 76.3 °F /  24.6 °C 57.4 °F /  14.1 °C 29.9in /  1013.4hPa Sur 0.7mph /  1.1km/h 5.2mph /  8.4km/h 52% 0in /  0.0mm
23:54 76.3 °F /  24.6 °C 57.4 °F /  14.1 °C 29.9in /  1013.4hPa SSO 2mph /  3.2km/h 5.2mph /  8.4km/h 51.9% 0in /  0.0mm
23:59 76.3 °F /  24.6 °C 56.8 °F /  13.8 °C 29.9in /  1013.4hPa SO 2.5mph /  4km/h 7.4mph /  11.9km/h 50.9% 0in /  0.0mm
Murcia-Puente Tocinos, España
Compliments of Weather Underground - 2.75 mb

La estación de MeteoMurcia.com, publica sus datos en los siguientes proyectos:

Weather Underground PWS IMURCIAP2 Meteoclimatic www.awekas.at

W3Counter
Web Analytics